Time;durP1;ratioP1;P1;durP2;ratioP2;P2;SDS_P1;SDS_P2;PMS_P1;PMS_P2;Temp;Humidity;BMP_temperature;BMP_pressure;BME280_temperature;BME280_humidity;BME280_pressure;Samples;Min_cycle;Max_cycle;Signal;HPM_P1;HPM_P2
2023/12/18 00:04:40;;;;;;;4.25;3.85;;;;;;;5.65;100.00;101759.31;4989302;56;1136672;-77
2023/12/18 00:09:46;;;;;;;11.97;5.33;;;;;;;5.65;100.00;101760.14;5016030;57;1136781;-77
2023/12/18 00:14:52;;;;;;;7.65;4.65;;;;;;;5.70;100.00;101753.88;4998256;56;1139186;-77
2023/12/18 00:19:59;;;;;;;8.00;4.87;;;;;;;5.72;100.00;101759.47;5001058;56;1136798;-77
2023/12/18 00:25:04;;;;;;;8.43;4.87;;;;;;;5.76;100.00;101759.76;5038175;57;1136691;-77
2023/12/18 00:30:11;;;;;;;6.60;4.77;;;;;;;5.79;100.00;101760.11;5040647;56;1138807;-78
2023/12/18 00:35:17;;;;;;;9.87;5.20;;;;;;;5.83;100.00;101757.28;5058635;56;1136823;-77
2023/12/18 00:40:23;;;;;;;7.08;4.65;;;;;;;5.87;100.00;101748.38;5045533;56;1136828;-78
2023/12/18 00:45:29;;;;;;;6.23;5.13;;;;;;;5.94;100.00;101744.66;5047320;56;1136701;-76
2023/12/18 00:50:34;;;;;;;9.07;5.37;;;;;;;6.05;100.00;101735.48;5004064;57;1136983;-77
2023/12/18 00:55:40;;;;;;;9.00;5.55;;;;;;;6.12;100.00;101739.11;4990676;57;1139011;-77
2023/12/18 01:00:46;;;;;;;8.63;5.70;;;;;;;6.20;100.00;101735.73;5013096;57;1138981;-77
2023/12/18 01:05:51;;;;;;;7.67;5.73;;;;;;;6.25;100.00;101732.94;4967137;58;1138781;-77
2023/12/18 01:10:57;;;;;;;7.50;5.57;;;;;;;6.28;100.00;101727.08;4952821;58;1138424;-77
2023/12/18 01:16:02;;;;;;;7.97;5.17;;;;;;;6.32;100.00;101723.41;4973028;58;1138524;-77
2023/12/18 01:21:08;;;;;;;11.37;5.23;;;;;;;6.33;100.00;101727.75;4953203;58;1139018;-77
2023/12/18 01:26:13;;;;;;;11.13;6.80;;;;;;;6.35;100.00;101732.95;4994704;57;1141007;-77
2023/12/18 01:31:25;;;;;;;8.33;6.23;;;;;;;6.35;100.00;101729.87;5045807;57;1140922;-77
2023/12/18 01:36:31;;;;;;;9.50;5.87;;;;;;;6.37;100.00;101733.75;4953902;57;1138979;-77
2023/12/18 01:41:36;;;;;;;11.65;6.35;;;;;;;6.37;100.00;101727.17;4963938;56;1139216;-77
2023/12/18 01:46:42;;;;;;;11.15;5.92;;;;;;;6.39;100.00;101723.18;5001992;56;1140824;-77
2023/12/18 01:51:49;;;;;;;8.27;5.27;;;;;;;6.37;100.00;101725.86;5006353;56;1140856;-77
2023/12/18 01:56:57;;;;;;;8.67;5.80;;;;;;;6.38;100.00;101738.55;4983444;56;1139394;-77
2023/12/18 02:02:03;;;;;;;10.63;4.83;;;;;;;6.38;100.00;101728.03;5069226;56;1139001;-78
2023/12/18 02:07:11;;;;;;;8.00;5.90;;;;;;;6.36;100.00;101733.34;5060105;57;1141185;-77
2023/12/18 02:12:17;;;;;;;10.32;6.00;;;;;;;6.37;100.00;101735.52;5026603;57;1138854;-78
2023/12/18 02:17:22;;;;;;;8.48;5.95;;;;;;;6.37;100.00;101740.31;5056505;57;1140831;-77
2023/12/18 02:22:28;;;;;;;11.05;6.62;;;;;;;6.37;100.00;101728.95;5022246;57;1138846;-77
2023/12/18 02:27:33;;;;;;;8.15;6.28;;;;;;;6.38;100.00;101723.63;5022216;57;1140944;-77
2023/12/18 02:32:39;;;;;;;13.38;7.03;;;;;;;6.38;100.00;101710.50;4974214;58;1139403;-78
2023/12/18 02:37:44;;;;;;;10.80;5.95;;;;;;;6.39;100.00;101708.27;4983414;56;1140889;-78
2023/12/18 02:42:50;;;;;;;9.25;6.17;;;;;;;6.38;100.00;101693.42;5004840;56;1140882;-76
2023/12/18 02:47:55;;;;;;;6.97;5.70;;;;;;;6.39;100.00;101699.07;5052370;56;1138906;-76
2023/12/18 02:53:01;;;;;;;9.53;6.47;;;;;;;6.38;100.00;101697.36;4877941;58;1138717;-77
2023/12/18 02:58:07;;;;;;;9.97;5.93;;;;;;;6.39;100.00;101690.33;4857642;59;1136932;-77
2023/12/18 03:03:12;;;;;;;7.10;5.57;;;;;;;6.40;100.00;101689.42;4861467;58;1136566;-77
2023/12/18 03:08:18;;;;;;;8.93;5.60;;;;;;;6.39;100.00;101688.56;4991482;57;1138826;-77
2023/12/18 03:13:23;;;;;;;12.47;6.80;;;;;;;6.40;100.00;101698.16;4991312;57;1136470;-77
2023/12/18 03:18:29;;;;;;;13.15;6.58;;;;;;;6.41;100.00;101689.36;4998163;57;1138949;-77
2023/12/18 03:23:35;;;;;;;9.10;5.90;;;;;;;6.42;100.00;101686.23;5002860;57;1138917;-77
2023/12/18 03:28:40;;;;;;;12.50;6.27;;;;;;;6.43;100.00;101683.55;5007921;57;1136790;-77
2023/12/18 03:33:46;;;;;;;14.07;7.10;;;;;;;6.45;100.00;101699.25;4995520;57;1138995;-77
2023/12/18 03:38:51;;;;;;;12.53;6.27;;;;;;;6.46;100.00;101707.08;5068352;56;1138770;-77
2023/12/18 03:43:57;;;;;;;10.93;7.30;;;;;;;6.47;100.00;101708.79;5068538;56;1138996;-77
2023/12/18 03:49:02;;;;;;;8.90;6.53;;;;;;;6.50;100.00;101698.61;5004285;57;1138690;-77
2023/12/18 03:54:08;;;;;;;11.73;6.67;;;;;;;6.51;100.00;101701.19;5025311;57;1136840;-77
2023/12/18 03:59:14;;;;;;;10.67;6.20;;;;;;;6.52;100.00;101708.15;5006263;57;1139028;-77
2023/12/18 04:04:19;;;;;;;13.13;6.80;;;;;;;6.56;100.00;101703.63;5008189;56;1138813;-77
2023/12/18 04:09:25;;;;;;;14.70;7.77;;;;;;;6.59;100.00;101700.84;5020591;56;1138848;-77
2023/12/18 04:14:30;;;;;;;14.93;7.13;;;;;;;6.60;100.00;101702.09;5001496;56;1141278;-77
2023/12/18 04:19:36;;;;;;;10.07;5.63;;;;;;;6.63;100.00;101712.48;4898715;59;1140914;-77
2023/12/18 04:24:42;;;;;;;9.28;7.30;;;;;;;6.63;100.00;101708.55;4865379;58;1140932;-77
2023/12/18 04:29:47;;;;;;;11.93;6.60;;;;;;;6.65;100.00;101704.54;4971604;58;1138782;-77
2023/12/18 04:34:53;;;;;;;11.57;7.73;;;;;;;6.64;100.00;101691.86;4934260;58;1141024;-77
2023/12/18 04:39:58;;;;;;;11.60;6.70;;;;;;;6.64;100.00;101694.48;4899986;58;1140732;-77
2023/12/18 04:45:04;;;;;;;12.00;6.78;;;;;;;6.66;100.00;101707.56;4911812;58;1140921;-77
2023/12/18 04:50:10;;;;;;;11.03;6.53;;;;;;;6.66;100.00;101713.68;5027005;57;1140707;-76
2023/12/18 04:55:16;;;;;;;18.10;7.70;;;;;;;6.67;100.00;101715.84;5072888;56;1141006;-78
2023/12/18 05:00:21;;;;;;;13.53;7.15;;;;;;;6.66;100.00;101709.73;5026830;57;1141320;-78
2023/12/18 05:05:27;;;;;;;13.53;7.13;;;;;;;6.66;100.00;101711.05;4945794;57;1182216;-78
2023/12/18 05:10:33;;;;;;;15.03;8.30;;;;;;;6.68;100.00;101714.47;4994759;57;1140989;-79
2023/12/18 05:15:38;;;;;;;20.15;8.18;;;;;;;6.67;100.00;101700.94;5059373;57;1141568;-77
2023/12/18 05:20:44;;;;;;;11.37;7.20;;;;;;;6.69;100.00;101706.12;5027663;57;1140809;-77
2023/12/18 05:25:49;;;;;;;15.65;7.62;;;;;;;6.69;100.00;101699.56;5039630;57;1141087;-77
2023/12/18 05:30:55;;;;;;;17.07;7.90;;;;;;;6.70;100.00;101698.18;5066309;57;1140975;-77
2023/12/18 05:36:01;;;;;;;13.28;8.43;;;;;;;6.74;100.00;101692.77;5001999;57;1140813;-78
2023/12/18 05:41:06;;;;;;;19.40;7.33;;;;;;;6.74;100.00;101690.99;4945412;57;1140914;-76
2023/12/18 05:46:14;;;;;;;15.15;7.75;;;;;;;6.74;100.00;101701.51;4948215;57;1141033;-76
2023/12/18 05:51:24;;;;;;;14.80;8.27;;;;;;;6.74;100.00;101690.14;4952463;58;1140907;-76
2023/12/18 05:56:29;;;;;;;17.83;9.33;;;;;;;6.75;100.00;101687.91;4950869;57;1141011;-76
2023/12/18 06:01:35;;;;;;;17.90;8.67;;;;;;;6.70;100.00;101685.03;5059520;57;1141267;-76
2023/12/18 06:06:40;;;;;;;14.77;8.67;;;;;;;6.74;100.00;101683.11;5035721;57;1140825;-76
2023/12/18 06:11:46;;;;;;;18.67;8.97;;;;;;;6.73;100.00;101691.91;4896725;58;1141073;-76
2023/12/18 06:16:51;;;;;;;14.40;8.77;;;;;;;6.74;100.00;101702.83;5066155;56;1140769;-76
2023/12/18 06:21:57;;;;;;;16.77;8.83;;;;;;;6.74;100.00;101706.77;5091001;57;1141059;-76
2023/12/18 06:27:03;;;;;;;14.87;8.00;;;;;;;6.74;100.00;101717.73;5062393;56;1253967;-76
2023/12/18 06:32:08;;;;;;;19.57;8.83;;;;;;;6.75;100.00;101728.66;5054020;56;1141030;-76
2023/12/18 06:37:14;;;;;;;13.00;8.87;;;;;;;6.75;100.00;101726.02;5067316;56;1141076;-76
2023/12/18 06:42:19;;;;;;;16.95;9.85;;;;;;;6.76;100.00;101731.68;4907034;59;1140864;-76
2023/12/18 06:47:25;;;;;;;21.00;9.53;;;;;;;6.77;100.00;101726.36;4904326;58;1140788;-76
2023/12/18 06:52:30;;;;;;;20.00;9.63;;;;;;;6.78;100.00;101727.22;5081367;56;1140967;-76
2023/12/18 06:57:36;;;;;;;15.77;9.27;;;;;;;6.78;100.00;101728.53;5079277;56;1140833;-77
2023/12/18 07:02:41;;;;;;;17.63;7.83;;;;;;;6.78;100.00;101727.22;5069478;56;1141085;-76
2023/12/18 07:07:47;;;;;;;18.60;10.37;;;;;;;6.77;100.00;101721.56;5051972;57;1140926;-77
2023/12/18 07:12:52;;;;;;;17.13;10.30;;;;;;;6.77;100.00;101722.41;4974117;57;1142959;-78
2023/12/18 07:18:00;;;;;;;14.40;9.57;;;;;;;6.78;100.00;101728.07;4934702;58;1142827;-78
2023/12/18 07:23:06;;;;;;;15.37;9.17;;;;;;;6.75;100.00;101739.17;4844412;59;1140893;-77
2023/12/18 07:28:12;;;;;;;17.67;6.70;;;;;;;6.74;100.00;101738.31;4864127;59;1141240;-78
2023/12/18 07:33:17;;;;;;;22.37;10.47;;;;;;;6.74;100.00;101732.20;4845596;59;1141063;-78
2023/12/18 07:38:23;;;;;;;19.10;9.77;;;;;;;6.76;100.00;101729.91;4825222;59;1142948;-75
2023/12/18 07:43:28;;;;;;;24.17;11.37;;;;;;;6.75;100.00;101743.11;4784995;60;1140906;-76
2023/12/18 07:48:34;;;;;;;21.73;10.93;;;;;;;6.77;100.00;101721.10;5044606;57;1142849;-76
2023/12/18 07:53:39;;;;;;;22.10;10.10;;;;;;;6.80;100.00;101727.55;4916173;58;1143003;-77
2023/12/18 07:58:45;;;;;;;19.80;8.83;;;;;;;6.84;100.00;101729.59;4860498;59;1143214;-77
2023/12/18 08:03:51;;;;;;;17.30;8.53;;;;;;;6.82;100.00;101739.32;5079663;57;1140732;-78
2023/12/18 08:08:56;;;;;;;28.07;11.17;;;;;;;6.82;100.00;101730.12;5058009;57;1140800;-77
2023/12/18 08:14:02;;;;;;;21.73;10.25;;;;;;;6.80;100.00;101730.64;5045338;57;1142986;-78
2023/12/18 08:19:08;;;;;;;20.67;11.00;;;;;;;6.85;100.00;101740.52;4986671;58;1144870;-78
2023/12/18 08:24:14;;;;;;;19.70;11.95;;;;;;;6.82;100.00;101740.63;5046163;56;1142930;-78
2023/12/18 08:29:19;;;;;;;20.08;8.68;;;;;;;6.81;100.00;101727.95;5073179;57;1143387;-78
2023/12/18 08:34:26;;;;;;;15.43;9.30;;;;;;;6.80;100.00;101742.02;5075984;57;1140575;-78
2023/12/18 08:39:32;;;;;;;25.10;13.13;;;;;;;6.78;100.00;101735.10;5032010;56;1140690;-78
2023/12/18 08:44:37;;;;;;;15.30;8.53;;;;;;;6.79;100.00;101735.05;4990360;57;1143039;-78
2023/12/18 08:49:43;;;;;;;14.67;8.80;;;;;;;6.80;100.00;101741.16;4985831;58;1140871;-77
2023/12/18 08:54:48;;;;;;;23.10;11.13;;;;;;;6.79;100.00;101736.36;5074759;57;1141036;-77
2023/12/18 08:59:55;;;;;;;22.37;10.23;;;;;;;6.81;100.00;101731.89;5071726;57;1143353;-77
2023/12/18 09:05:00;;;;;;;17.23;9.47;;;;;;;6.79;100.00;101732.41;5070449;57;1143104;-77
2023/12/18 09:10:07;;;;;;;24.57;9.30;;;;;;;6.72;100.00;101736.70;5092943;57;1140742;-78
2023/12/18 09:15:12;;;;;;;18.17;10.50;;;;;;;6.62;100.00;101729.64;5056087;56;1138915;-78
2023/12/18 09:20:18;;;;;;;19.53;10.37;;;;;;;6.61;100.00;101725.30;4948562;57;1142930;-77
2023/12/18 09:25:23;;;;;;;13.50;8.47;;;;;;;6.63;100.00;101720.83;4984132;57;1143022;-76
2023/12/18 09:30:29;;;;;;;23.47;11.37;;;;;;;6.65;100.00;101715.05;5016042;57;1140998;-75
2023/12/18 09:35:35;;;;;;;20.57;10.73;;;;;;;6.66;100.00;101712.83;4922509;57;1143201;-75
2023/12/18 09:40:45;;;;;;;21.00;9.20;;;;;;;6.68;100.00;101723.67;4940518;58;1143323;-75
2023/12/18 09:45:51;;;;;;;16.90;9.70;;;;;;;6.69;100.00;101709.61;4784869;60;1140807;-77
2023/12/18 09:50:57;;;;;;;11.37;6.77;;;;;;;6.72;100.00;101703.38;4977287;58;1140717;-79
2023/12/18 09:56:06;;;;;;;23.07;9.73;;;;;;;6.74;100.00;101701.51;5033205;57;1140656;-78
2023/12/18 10:01:12;;;;;;;16.73;9.10;;;;;;;6.75;100.00;101699.73;4998223;57;1140695;-75
2023/12/18 10:06:18;;;;;;;19.95;10.45;;;;;;;6.77;100.00;101705.33;4978054;57;1140718;-75
2023/12/18 10:11:27;;;;;;;17.93;10.37;;;;;;;6.78;100.00;101698.30;4996122;57;1142841;-78
2023/12/18 10:16:33;;;;;;;18.80;9.03;;;;;;;6.77;100.00;101701.38;4976257;57;1142804;-77
2023/12/18 10:21:39;;;;;;;21.48;11.30;;;;;;;6.75;100.00;101698.42;5035930;57;1141327;-74
2023/12/18 10:26:47;;;;;;;19.10;9.38;;;;;;;6.78;100.00;101702.23;5092121;56;1143042;-77
2023/12/18 10:31:53;;;;;;;19.07;9.83;;;;;;;6.78;100.00;101704.87;5054541;57;1140727;-75
2023/12/18 10:36:59;;;;;;;21.27;11.17;;;;;;;6.78;100.00;101701.78;5054999;56;1141026;-77
2023/12/18 10:42:09;;;;;;;21.77;9.08;;;;;;;6.78;100.00;101700.92;5159141;56;1142882;-78
2023/12/18 10:47:16;;;;;;;21.05;10.25;;;;;;;6.76;100.00;101692.24;5087346;56;1140819;-74
2023/12/18 10:52:24;;;;;;;19.20;9.85;;;;;;;6.77;100.00;101697.89;5054419;57;1142995;-77
2023/12/18 10:57:30;;;;;;;15.33;9.37;;;;;;;6.83;100.00;101684.50;5054680;56;1140730;-76
2023/12/18 11:02:37;;;;;;;11.13;5.97;;;;;;;6.83;100.00;101684.50;5073940;57;1140726;-75
2023/12/18 11:07:45;;;;;;;16.60;9.37;;;;;;;6.87;100.00;101677.73;5053655;57;1140664;-76
2023/12/18 11:12:55;;;;;;;14.17;9.57;;;;;;;6.92;100.00;101674.88;5053572;57;1140719;-74
2023/12/18 11:18:23;;;;;;;18.53;9.43;;;;;;;6.92;100.00;101674.42;5061438;56;1140579;-76
2023/12/18 11:23:32;;;;;;;19.27;9.93;;;;;;;6.92;100.00;101666.53;5005447;57;1140857;-76
2023/12/18 11:28:38;;;;;;;21.20;10.85;;;;;;;6.94;100.00;101669.09;4920388;58;1140685;-75
2023/12/18 11:34:10;;;;;;;15.00;8.50;;;;;;;6.93;100.00;101643.26;4961645;58;1142977;-74
2023/12/18 11:39:11;;;;;;;15.10;8.73;;;;;;;6.96;100.00;101642.27;4998386;57;1148590;-74
2023/12/18 11:44:17;;;;;;;17.87;8.70;;;;;;;6.96;100.00;101644.44;4947755;57;1140921;-74
2023/12/18 11:49:22;;;;;;;14.30;8.65;;;;;;;6.99;100.00;101642.14;4939575;57;1140746;-78
2023/12/18 11:54:28;;;;;;;15.03;9.63;;;;;;;7.01;100.00;101646.87;4876672;58;1140766;-75
2023/12/18 11:59:35;;;;;;;17.50;9.10;;;;;;;7.04;100.00;101649.34;4920022;58;1140760;-76
2023/12/18 12:04:43;;;;;;;11.63;8.13;;;;;;;7.03;100.00;101656.38;4938828;58;1141082;-75
2023/12/18 12:10:00;;;;;;;21.73;10.07;;;;;;;7.04;100.00;101666.44;4918706;58;1140916;-76
2023/12/18 12:15:06;;;;;;;13.20;8.00;;;;;;;7.06;100.00;101668.09;4960718;57;1256503;-78
2023/12/18 12:20:14;;;;;;;16.35;9.78;;;;;;;7.06;100.00;101653.62;5019504;57;1141089;-77
2023/12/18 12:25:20;;;;;;;18.77;9.40;;;;;;;7.08;100.00;101664.53;5034258;56;1141075;-76
2023/12/18 12:30:26;;;;;;;13.60;8.70;;;;;;;7.05;100.00;101662.89;5016919;57;1141005;-75
2023/12/18 12:35:33;;;;;;;21.37;11.83;;;;;;;7.03;100.00;101659.47;4977341;58;1140976;-77
2023/12/18 12:40:47;;;;;;;17.50;10.95;;;;;;;7.01;100.00;101663.52;5047129;57;1142852;-74
2023/12/18 12:45:52;;;;;;;18.30;9.60;;;;;;;7.01;100.00;101674.03;5059067;57;1142807;-74
2023/12/18 12:50:58;;;;;;;21.33;8.90;;;;;;;7.02;100.00;101674.43;4980911;57;1141108;-77
2023/12/18 12:56:05;;;;;;;17.10;9.90;;;;;;;7.04;100.00;101675.19;4996473;58;1141042;-77
2023/12/18 13:01:10;;;;;;;14.45;10.10;;;;;;;7.00;100.00;101684.63;4977145;58;1146974;-74
2023/12/18 13:06:16;;;;;;;14.53;8.10;;;;;;;6.96;100.00;101685.67;4976340;58;1142938;-76
2023/12/18 13:11:22;;;;;;;16.77;8.88;;;;;;;6.91;100.00;101690.27;5040788;57;1140724;-75
2023/12/18 13:16:28;;;;;;;27.87;13.43;;;;;;;6.83;100.00;101679.23;5059154;57;1141020;-75
2023/12/18 13:21:33;;;;;;;20.45;9.90;;;;;;;6.78;100.00;101683.84;5058407;57;1143217;-77
2023/12/18 13:26:39;;;;;;;15.33;9.57;;;;;;;6.73;100.00;101685.80;5055886;56;1141061;-74
2023/12/18 13:31:45;;;;;;;14.70;9.83;;;;;;;6.72;100.00;101695.95;4990181;58;1140806;-75
2023/12/18 13:36:52;;;;;;;21.07;12.90;;;;;;;6.65;100.00;101702.77;5048479;57;1140770;-74
2023/12/18 13:41:59;;;;;;;16.03;10.07;;;;;;;6.58;100.00;101694.73;5092631;57;1142990;-76
2023/12/18 13:47:06;;;;;;;23.63;10.87;;;;;;;6.53;100.00;101684.89;5071250;57;1143301;-74
2023/12/18 13:52:14;;;;;;;22.10;12.53;;;;;;;6.47;100.00;101686.45;5073062;57;1143261;-76
2023/12/18 13:57:20;;;;;;;16.87;11.30;;;;;;;6.46;100.00;101681.26;5093203;57;1143109;-77
2023/12/18 14:02:25;;;;;;;19.25;11.38;;;;;;;6.45;100.00;101678.23;5072269;57;1142904;-74
2023/12/18 14:07:31;;;;;;;20.10;11.18;;;;;;;6.43;100.00;101684.86;5072906;57;1143120;-74
2023/12/18 14:12:37;;;;;;;16.90;10.00;;;;;;;6.38;100.00;101681.59;5092929;57;1142925;-77
2023/12/18 14:17:42;;;;;;;20.10;11.43;;;;;;;6.40;100.00;101681.08;5095500;57;1142914;-77
2023/12/18 14:22:48;;;;;;;18.90;11.07;;;;;;;6.39;100.00;101687.70;5095084;57;1143136;-76
2023/12/18 14:27:54;;;;;;;15.90;10.47;;;;;;;6.39;100.00;101683.77;5070835;57;1143146;-76
2023/12/18 14:32:59;;;;;;;28.90;14.03;;;;;;;6.38;100.00;101690.79;5034955;57;1142766;-75
2023/12/18 14:38:05;;;;;;;17.97;11.03;;;;;;;6.37;100.00;101686.91;5015855;57;1142685;-78
2023/12/18 14:43:11;;;;;;;62.27;25.43;;;;;;;6.28;100.00;101680.24;5014675;57;1146695;-81
2023/12/18 14:48:21;;;;;;;24.52;12.58;;;;;;;6.26;100.00;101684.25;5010408;57;1142917;-76
2023/12/18 14:53:27;;;;;;;31.33;14.47;;;;;;;6.25;100.00;101674.69;4930462;58;1142864;-86
2023/12/18 14:58:32;;;;;;;27.37;11.23;;;;;;;6.22;100.00;101679.20;4933980;58;1143074;-83
2023/12/18 15:03:38;;;;;;;45.27;16.07;;;;;;;6.21;100.00;101672.23;4993884;57;1143185;-79
2023/12/18 15:08:44;;;;;;;26.23;13.47;;;;;;;6.18;100.00;101674.53;5014876;57;1142731;-78
2023/12/18 15:13:50;;;;;;;30.93;15.37;;;;;;;6.17;100.00;101663.63;5015300;57;1142812;-74
2023/12/18 15:18:55;;;;;;;41.70;16.77;;;;;;;6.17;100.00;101659.68;5024616;57;1143588;-78
2023/12/18 15:24:01;;;;;;;18.80;12.13;;;;;;;6.15;100.00;101656.26;4981443;57;1143187;-78
2023/12/18 15:29:07;;;;;;;18.17;11.90;;;;;;;6.15;100.00;101660.20;4933522;58;1143061;-75
2023/12/18 15:34:13;;;;;;;21.40;11.53;;;;;;;6.16;100.00;101667.16;5061087;57;1143323;-79
2023/12/18 15:39:18;;;;;;;52.20;18.50;;;;;;;6.17;100.00;101656.20;5063515;56;1143105;-79
2023/12/18 15:44:24;;;;;;;58.55;21.93;;;;;;;6.18;100.00;101653.97;5062127;57;1143039;-78
2023/12/18 15:49:29;;;;;;;25.93;12.77;;;;;;;6.19;100.00;101655.68;5061738;57;1143049;-82
2023/12/18 15:54:35;;;;;;;31.77;15.32;;;;;;;6.20;100.00;101649.52;5054936;57;1142927;-77
2023/12/18 15:59:41;;;;;;;41.50;20.90;;;;;;;6.20;100.00;101645.11;5066622;57;1142878;-76
2023/12/18 16:04:46;;;;;;;20.27;12.88;;;;;;;6.20;100.00;101639.86;5082545;56;1142856;-77
2023/12/18 16:09:52;;;;;;;25.37;13.03;;;;;;;6.21;100.00;101636.31;5102180;57;1143341;-79
2023/12/18 16:14:57;;;;;;;26.67;13.67;;;;;;;6.21;100.00;101637.63;5082070;57;1142788;-78
2023/12/18 16:20:04;;;;;;;27.83;14.27;;;;;;;6.22;100.00;101618.33;5040700;57;1142572;-78
2023/12/18 16:25:09;;;;;;;25.13;13.03;;;;;;;6.25;100.00;101619.52;5045773;57;1142953;-76
2023/12/18 16:30:15;;;;;;;23.30;12.53;;;;;;;6.27;100.00;101611.08;5028401;56;1148139;-81
2023/12/18 16:35:21;;;;;;;41.40;20.40;;;;;;;6.29;100.00;101602.68;5023572;57;1142846;-77
2023/12/18 16:40:27;;;;;;;24.85;14.00;;;;;;;6.29;100.00;101595.26;4964303;58;1142930;-79
2023/12/18 16:45:32;;;;;;;20.17;13.43;;;;;;;6.30;100.00;101592.57;4953287;58;1142686;-77
2023/12/18 16:50:38;;;;;;;17.57;10.78;;;;;;;6.30;100.00;101600.45;4864240;58;1142776;-76
2023/12/18 16:55:43;;;;;;;21.70;12.70;;;;;;;6.26;100.00;101590.98;4894653;59;1143001;-76
2023/12/18 17:00:49;;;;;;;17.10;10.37;;;;;;;6.27;100.00;101580.88;4940499;59;1142905;-77
2023/12/18 17:05:55;;;;;;;17.27;11.37;;;;;;;6.28;100.00;101575.16;4901918;59;1142826;-74
2023/12/18 17:11:19;;;;;;;19.40;11.17;;;;;;;6.28;100.00;101583.89;4901385;58;1142821;-77
2023/12/18 17:16:25;;;;;;;18.95;12.00;;;;;;;6.30;100.00;101583.83;4754376;59;1143272;-76
2023/12/18 17:21:30;;;;;;;17.12;11.28;;;;;;;6.28;100.00;101562.87;4857562;59;1142777;-80
2023/12/18 17:26:37;;;;;;;15.90;10.78;;;;;;;6.29;100.00;101560.65;4892983;58;1142868;-76
2023/12/18 17:31:42;;;;;;;16.17;11.70;;;;;;;6.30;100.00;101554.94;5068739;57;1142859;-74
2023/12/18 17:36:48;;;;;;;13.70;9.30;;;;;;;6.30;100.00;101561.05;5028018;57;1142627;-76
2023/12/18 17:41:54;;;;;;;16.00;11.30;;;;;;;6.30;100.00;101562.81;5008715;57;1140714;-76
2023/12/18 17:47:00;;;;;;;22.57;11.73;;;;;;;6.32;100.00;101559.20;4910240;58;1143256;-78
2023/12/18 17:52:06;;;;;;;17.80;10.57;;;;;;;6.33;100.00;101530.70;4879720;58;1142775;-77
2023/12/18 17:57:11;;;;;;;22.50;10.57;;;;;;;6.32;100.00;101531.63;4897201;58;1143401;-76
2023/12/18 18:02:17;;;;;;;27.83;15.77;;;;;;;6.32;100.00;101524.20;4931324;58;1142764;-80
2023/12/18 18:07:22;;;;;;;37.40;21.77;;;;;;;6.34;100.00;101519.73;4962231;58;1143090;-76
2023/12/18 18:12:28;;;;;;;21.12;14.15;;;;;;;6.34;100.00;101524.98;5091810;57;1142810;-76
2023/12/18 18:17:34;;;;;;;16.32;10.75;;;;;;;6.32;100.00;101535.56;5089924;57;1142854;-74
2023/12/18 18:22:39;;;;;;;20.10;12.87;;;;;;;6.33;100.00;101534.64;5096342;57;1142918;-76
2023/12/18 18:27:45;;;;;;;19.03;10.60;;;;;;;6.35;100.00;101522.76;5039995;57;1142745;-79
2023/12/18 18:32:52;;;;;;;21.73;14.83;;;;;;;6.34;100.00;101498.26;5008648;58;1142928;-77
2023/12/18 18:37:57;;;;;;;25.10;12.47;;;;;;;6.33;100.00;101487.81;5002724;58;1143286;-83
2023/12/18 18:43:03;;;;;;;18.83;10.13;;;;;;;6.33;100.00;101488.66;4976099;58;1142782;-78
2023/12/18 18:48:11;;;;;;;21.37;12.73;;;;;;;6.37;100.00;101478.03;5009480;57;1142516;-84
2023/12/18 18:53:16;;;;;;;22.33;10.73;;;;;;;6.36;100.00;101465.35;5071794;57;1142891;-78
2023/12/18 18:58:22;;;;;;;23.63;11.67;;;;;;;6.34;100.00;101464.10;5062178;57;1143182;-78
2023/12/18 19:03:28;;;;;;;26.65;12.45;;;;;;;6.32;100.00;101459.83;5059557;57;1143048;-78
2023/12/18 19:08:34;;;;;;;25.40;14.17;;;;;;;6.34;100.00;101462.79;5041467;57;1143046;-81
2023/12/18 19:13:40;;;;;;;18.10;10.28;;;;;;;6.38;100.00;101473.17;5078610;57;1143058;-75
2023/12/18 19:18:46;;;;;;;13.33;8.93;;;;;;;6.34;100.00;101469.36;5026574;57;1143217;-79
2023/12/18 19:23:52;;;;;;;25.13;12.60;;;;;;;6.32;100.00;101479.08;5037468;57;1140817;-78
2023/12/18 19:29:00;;;;;;;21.82;12.25;;;;;;;6.30;100.00;101463.84;4851506;58;1143027;-80
2023/12/18 19:34:04;;;;;;;17.30;9.73;;;;;;;6.31;100.00;101446.30;5059363;57;1143163;-76
2023/12/18 19:39:10;;;;;;;24.37;13.60;;;;;;;6.29;100.00;101431.06;5059329;57;1140914;-79
2023/12/18 19:44:16;;;;;;;27.50;12.80;;;;;;;6.29;100.00;101411.37;5078884;57;1142815;-78
2023/12/18 19:49:22;;;;;;;21.53;11.27;;;;;;;6.26;100.00;101412.34;5004907;56;1259908;-79
2023/12/18 19:54:28;;;;;;;22.67;12.17;;;;;;;6.26;100.00;101424.17;5018384;57;1142746;-75
2023/12/18 19:59:33;;;;;;;26.42;12.70;;;;;;;6.22;100.00;101423.95;5056114;56;1143221;-78
2023/12/18 20:04:39;;;;;;;23.77;11.65;;;;;;;6.23;100.00;101417.77;5059771;57;1142864;-81
2023/12/18 20:09:46;;;;;;;21.77;12.63;;;;;;;6.24;100.00;101410.74;5039548;57;1143214;-77
2023/12/18 20:14:52;;;;;;;134.10;39.63;;;;;;;6.22;100.00;101416.06;5039028;57;1143023;-78
2023/12/18 20:19:59;;;;;;;68.73;19.50;;;;;;;6.21;100.00;101417.44;5046723;57;1145258;-77
2023/12/18 20:25:05;;;;;;;25.50;11.53;;;;;;;6.20;100.00;101403.45;5045914;57;1143131;-80
2023/12/18 20:30:11;;;;;;;69.73;18.97;;;;;;;6.21;100.00;101394.66;4984541;57;1143099;-79
2023/12/18 20:35:17;;;;;;;34.80;12.83;;;;;;;6.24;100.00;101380.08;5033980;57;1143204;-78
2023/12/18 20:40:24;;;;;;;46.77;16.13;;;;;;;6.27;100.00;101383.00;5064343;56;1142942;-78
2023/12/18 20:45:31;;;;;;;32.67;11.05;;;;;;;6.25;100.00;101361.23;4891601;55;1143198;-77
2023/12/18 20:50:37;;;;;;;202.13;55.73;;;;;;;6.23;100.00;101354.73;4814186;59;1143071;-78
2023/12/18 21:01:02;;;;;;;30.60;13.30;;;;;;;6.17;100.00;101330.05;4832767;58;1143006;-78
2023/12/18 21:06:08;;;;;;;34.13;13.00;;;;;;;6.14;100.00;101324.08;4853373;58;1143201;-81
2023/12/18 21:11:14;;;;;;;24.13;10.73;;;;;;;6.13;100.00;101323.22;4776778;60;1143396;-81
2023/12/18 21:16:19;;;;;;;27.27;11.63;;;;;;;6.12;100.00;101332.48;4784792;59;1143049;-79
2023/12/18 21:21:25;;;;;;;24.43;10.70;;;;;;;6.09;100.00;101303.30;4782844;58;1143081;-78
2023/12/18 21:26:30;;;;;;;24.27;11.22;;;;;;;6.07;100.00;101267.52;4740097;59;1143217;-78
2023/12/18 21:31:36;;;;;;;21.12;11.15;;;;;;;6.05;100.00;101272.84;4862245;58;1143060;-79
2023/12/18 21:36:42;;;;;;;26.73;12.77;;;;;;;6.05;100.00;101280.72;4809616;58;1142881;-80
2023/12/18 21:41:48;;;;;;;16.33;8.60;;;;;;;6.05;100.00;101275.47;4810680;58;1143311;-74
2023/12/18 21:46:54;;;;;;;17.33;9.30;;;;;;;6.07;100.00;101257.02;4814773;58;1140908;-76
2023/12/18 21:51:59;;;;;;;17.90;9.17;;;;;;;6.08;100.00;101262.67;4692685;60;1140789;-80
2023/12/18 21:57:07;;;;;;;50.77;20.07;;;;;;;6.06;100.00;101261.42;4654762;60;1140931;-77
2023/12/18 22:02:13;;;;;;;18.00;9.93;;;;;;;6.05;100.00;101240.02;4607508;63;1142830;-78
2023/12/18 22:07:18;;;;;;;14.70;7.43;;;;;;;6.04;100.00;101249.28;4653598;61;1140887;-74
2023/12/18 22:12:25;;;;;;;13.93;7.70;;;;;;;6.00;100.00;101249.42;4719832;60;1138970;-76
2023/12/18 22:17:31;;;;;;;16.37;8.07;;;;;;;5.98;100.00;101238.59;4587099;59;1138948;-78
2023/12/18 22:22:36;;;;;;;14.53;8.28;;;;;;;5.97;100.00;101227.23;4668531;60;1140876;-74
2023/12/18 22:27:42;;;;;;;19.07;9.40;;;;;;;5.98;100.00;101218.44;4685749;61;1141203;-79
2023/12/18 22:32:48;;;;;;;14.57;8.13;;;;;;;5.97;100.00;101218.52;4812947;59;1140961;-79
2023/12/18 22:37:54;;;;;;;16.70;7.90;;;;;;;5.94;100.00;101210.34;4779995;61;1140879;-77
2023/12/18 22:42:59;;;;;;;11.93;8.33;;;;;;;5.93;100.00;101199.91;4809271;59;1141230;-76
2023/12/18 22:48:06;;;;;;;12.57;7.10;;;;;;;5.90;100.00;101189.09;4795977;58;1140869;-77
2023/12/18 22:53:12;;;;;;;14.43;7.87;;;;;;;5.85;100.00;101192.35;4881567;59;1140978;-77
2023/12/18 22:58:18;;;;;;;14.83;7.73;;;;;;;5.85;100.00;101187.10;4862471;59;1140976;-79